createdAt,value
2023-03-22T00:00:07.258Z,73.93
2023-03-22T00:02:40.071Z,73.68
2023-03-22T00:05:12.812Z,73.83
2023-03-22T00:07:45.708Z,74.10
2023-03-22T00:10:18.558Z,73.73
2023-03-22T00:12:53.282Z,73.74
2023-03-22T00:15:26.440Z,73.78
2023-03-22T00:17:59.528Z,74.18
2023-03-22T00:20:33.861Z,74.10
2023-03-22T00:23:06.857Z,73.94
2023-03-22T00:25:39.660Z,73.92
2023-03-22T00:28:14.578Z,73.58
2023-03-22T00:30:52.068Z,74.07
2023-03-22T00:33:25.267Z,73.74
2023-03-22T00:35:59.473Z,73.93
2023-03-22T00:38:42.336Z,73.76
2023-03-22T00:41:17.100Z,73.74
2023-03-22T00:43:53.483Z,73.69
2023-03-22T00:46:26.393Z,73.80
2023-03-22T00:48:59.373Z,73.67
2023-03-22T00:51:32.082Z,73.27
2023-03-22T00:54:05.040Z,73.25
2023-03-22T00:56:38.433Z,73.06
2023-03-22T00:59:13.561Z,72.35
2023-03-22T01:01:46.250Z,72.00
2023-03-22T01:04:26.149Z,71.95
2023-03-22T01:07:02.172Z,72.16
2023-03-22T01:09:34.981Z,72.08
2023-03-22T01:12:07.887Z,71.94
2023-03-22T01:14:42.292Z,71.71
2023-03-22T01:17:15.043Z,71.38
2023-03-22T01:19:47.861Z,71.89
2023-03-22T01:22:20.738Z,71.40
2023-03-22T01:24:53.992Z,71.61
2023-03-22T01:27:26.658Z,72.21
2023-03-22T01:30:00.835Z,72.06
2023-03-22T01:32:33.614Z,71.78
2023-03-22T01:35:06.965Z,72.44
2023-03-22T01:37:39.706Z,72.31
2023-03-22T01:40:13.468Z,72.11
2023-03-22T01:42:46.238Z,72.05
2023-03-22T01:45:34.909Z,71.95
2023-03-22T01:48:11.046Z,71.97
2023-03-22T01:50:45.931Z,72.43
2023-03-22T01:53:23.737Z,72.52
2023-03-22T01:55:57.351Z,71.73
2023-03-22T01:58:30.185Z,71.89
2023-03-22T02:01:05.505Z,72.20
2023-03-22T02:03:42.281Z,71.31
2023-03-22T02:06:15.085Z,71.90
2023-03-22T02:08:47.974Z,72.11
2023-03-22T02:11:24.529Z,71.64
2023-03-22T02:14:06.324Z,71.68
2023-03-22T02:16:47.042Z,71.90
2023-03-22T02:19:42.344Z,71.76
2023-03-22T02:22:38.930Z,71.90
2023-03-22T02:25:25.417Z,72.26
2023-03-22T02:28:08.951Z,72.10
2023-03-22T02:30:54.386Z,71.82
2023-03-22T02:33:57.702Z,72.10
2023-03-22T02:36:37.969Z,72.06
2023-03-22T02:39:18.720Z,72.22
2023-03-22T02:42:01.836Z,72.46
2023-03-22T02:44:41.825Z,72.51
2023-03-22T02:47:20.589Z,73.00
2023-03-22T02:49:57.298Z,72.99
2023-03-22T02:52:32.342Z,73.21
2023-03-22T02:55:11.466Z,72.97
2023-03-22T02:57:47.000Z,72.95
2023-03-22T03:00:21.047Z,73.12
2023-03-22T03:02:55.715Z,72.96
2023-03-22T03:05:29.703Z,73.08
2023-03-22T03:08:03.796Z,73.09
2023-03-22T03:10:38.739Z,72.90
2023-03-22T03:13:13.635Z,73.19
2023-03-22T03:15:48.812Z,73.13
2023-03-22T03:18:27.877Z,72.63
2023-03-22T03:21:04.153Z,72.95
2023-03-22T03:23:41.217Z,72.91
2023-03-22T03:26:22.601Z,72.77
2023-03-22T03:28:59.099Z,72.73
2023-03-22T03:31:36.147Z,72.84
2023-03-22T03:34:12.437Z,72.84
2023-03-22T03:36:47.553Z,72.66
2023-03-22T03:39:22.033Z,72.58
2023-03-22T03:41:56.851Z,72.83
2023-03-22T03:44:30.762Z,72.74
2023-03-22T03:47:04.016Z,72.46
2023-03-22T03:49:37.050Z,72.62
2023-03-22T03:52:10.013Z,72.97
2023-03-22T03:54:42.799Z,72.96
2023-03-22T03:57:17.600Z,73.03
2023-03-22T03:59:50.296Z,73.13
2023-03-22T04:02:23.329Z,72.95
2023-03-22T04:04:56.184Z,73.01
2023-03-22T04:07:28.966Z,73.01
2023-03-22T04:10:01.664Z,73.02
2023-03-22T04:12:35.734Z,72.88
2023-03-22T04:15:08.998Z,73.24
2023-03-22T04:17:41.776Z,73.16
2023-03-22T04:20:14.746Z,73.08
2023-03-22T04:22:48.657Z,73.29
2023-03-22T04:25:22.982Z,73.17
2023-03-22T04:27:57.247Z,73.18
2023-03-22T04:30:30.875Z,73.03
2023-03-22T04:33:07.024Z,73.30
2023-03-22T04:35:39.798Z,72.87
2023-03-22T04:38:12.529Z,73.54
2023-03-22T04:40:46.820Z,73.18
2023-03-22T04:43:21.062Z,73.22
2023-03-22T04:45:54.883Z,73.36
2023-03-22T04:48:28.340Z,73.35
2023-03-22T04:51:04.097Z,73.45
2023-03-22T04:53:38.981Z,73.72
2023-03-22T04:56:12.930Z,73.85
2023-03-22T04:58:48.140Z,73.49
2023-03-22T05:01:21.039Z,73.36
2023-03-22T05:03:53.862Z,73.83
2023-03-22T05:06:27.504Z,73.62
2023-03-22T05:09:00.982Z,73.70
2023-03-22T05:11:33.823Z,73.43
2023-03-22T05:14:08.085Z,73.73
2023-03-22T05:16:41.433Z,73.36
2023-03-22T05:19:15.064Z,73.38
2023-03-22T05:21:47.678Z,73.34
2023-03-22T05:24:20.625Z,73.42
2023-03-22T05:26:54.022Z,73.30
2023-03-22T05:29:28.593Z,73.53
2023-03-22T05:32:01.466Z,73.21
2023-03-22T05:34:36.566Z,73.34
2023-03-22T05:37:09.254Z,73.08
2023-03-22T05:39:42.116Z,73.08
2023-03-22T05:42:14.912Z,73.16
2023-03-22T05:44:49.001Z,73.37
2023-03-22T05:47:22.238Z,73.55
2023-03-22T05:49:55.000Z,73.43
2023-03-22T05:52:27.784Z,73.41
2023-03-22T05:55:01.001Z,73.01
2023-03-22T05:57:33.847Z,73.36
2023-03-22T06:00:13.551Z,73.44
2023-03-22T06:02:47.329Z,73.37
2023-03-22T06:05:21.189Z,73.58
2023-03-22T06:07:53.851Z,73.40
2023-03-22T06:10:28.920Z,73.66
2023-03-22T06:13:01.610Z,73.88
2023-03-22T06:15:35.719Z,74.02
2023-03-22T06:18:08.520Z,74.55
2023-03-22T06:20:41.817Z,74.58
2023-03-22T06:23:14.696Z,75.27
2023-03-22T06:25:47.453Z,75.65
2023-03-22T06:28:20.351Z,76.26
2023-03-22T06:30:54.518Z,76.42
2023-03-22T06:33:27.239Z,76.35
2023-03-22T06:36:02.065Z,76.63
2023-03-22T06:38:34.888Z,76.65
2023-03-22T06:41:07.751Z,76.65
2023-03-22T06:43:40.524Z,77.01
2023-03-22T06:46:14.838Z,77.26
2023-03-22T06:48:47.576Z,77.37
2023-03-22T06:51:20.534Z,77.55
2023-03-22T06:53:53.259Z,77.91
2023-03-22T06:56:26.361Z,77.67
2023-03-22T06:58:59.103Z,77.21
2023-03-22T07:01:33.324Z,77.97
2023-03-22T07:04:06.471Z,77.49
2023-03-22T07:06:39.306Z,77.98
2023-03-22T07:09:12.338Z,77.93
2023-03-22T07:11:45.094Z,77.26
2023-03-22T07:14:18.237Z,77.84
2023-03-22T07:16:52.689Z,77.61
2023-03-22T07:19:25.893Z,78.05
2023-03-22T07:21:58.769Z,78.08
2023-03-22T07:24:31.455Z,78.14
2023-03-22T07:27:04.711Z,77.81
2023-03-22T07:29:37.655Z,77.97
2023-03-22T07:32:12.057Z,77.91
2023-03-22T07:34:44.821Z,78.33
2023-03-22T07:37:17.602Z,78.24
2023-03-22T07:39:50.274Z,78.19
2023-03-22T07:42:23.416Z,78.34
2023-03-22T07:44:56.225Z,78.36
2023-03-22T07:47:40.327Z,78.34
2023-03-22T07:50:14.499Z,78.50
2023-03-22T07:52:47.251Z,78.55
2023-03-22T07:55:19.993Z,78.48
2023-03-22T07:57:53.774Z,78.71
2023-03-22T08:00:27.073Z,78.43
2023-03-22T08:03:01.492Z,78.68
2023-03-22T08:05:34.321Z,78.35
2023-03-22T08:08:07.595Z,78.89
2023-03-22T08:10:40.598Z,78.45
2023-03-22T08:13:13.443Z,78.50
2023-03-22T08:15:46.156Z,78.16
2023-03-22T08:18:20.883Z,78.29
2023-03-22T08:20:58.235Z,78.40
2023-03-22T08:23:41.541Z,78.44
2023-03-22T08:26:14.817Z,78.42
2023-03-22T08:28:47.677Z,78.44
2023-03-22T08:31:20.873Z,78.06
2023-03-22T08:33:55.057Z,78.44
2023-03-22T08:36:29.090Z,78.31
2023-03-22T08:39:02.016Z,77.96
2023-03-22T08:41:34.743Z,77.56
2023-03-22T08:44:07.777Z,77.48
2023-03-22T08:46:40.439Z,77.86
2023-03-22T08:49:15.160Z,77.33
2023-03-22T08:51:47.857Z,77.17
2023-03-22T08:54:20.841Z,77.12
2023-03-22T08:56:53.632Z,76.59
2023-03-22T08:59:29.818Z,75.38
2023-03-22T09:02:05.765Z,76.91
2023-03-22T09:04:40.714Z,75.83
2023-03-22T09:07:13.713Z,75.71
2023-03-22T09:09:46.505Z,76.22
2023-03-22T09:12:19.252Z,75.67
2023-03-22T09:14:52.041Z,76.25
2023-03-22T09:17:24.742Z,77.28
2023-03-22T09:20:11.508Z,73.80
2023-03-22T09:22:45.377Z,74.30
2023-03-22T09:25:18.189Z,75.11
2023-03-22T09:27:51.312Z,74.89
2023-03-22T09:30:24.189Z,73.46
2023-03-22T09:32:57.009Z,72.04
2023-03-22T09:35:31.192Z,75.97
2023-03-22T09:38:06.103Z,75.18
2023-03-22T09:40:40.393Z,75.24
2023-03-22T09:43:13.873Z,74.62
2023-03-22T09:45:49.264Z,71.88
2023-03-22T09:48:23.374Z,70.07
2023-03-22T09:50:57.700Z,73.61
2023-03-22T09:53:30.964Z,72.53
2023-03-22T09:56:08.712Z,74.20
2023-03-22T09:58:44.678Z,74.01
2023-03-22T10:01:22.629Z,73.60
2023-03-22T10:04:06.178Z,75.15
2023-03-22T10:06:42.127Z,74.57
2023-03-22T10:09:17.764Z,75.37
2023-03-22T10:11:55.075Z,74.28
2023-03-22T10:14:31.560Z,74.57
2023-03-22T10:17:07.705Z,73.55
2023-03-22T10:19:45.115Z,74.59
2023-03-22T10:22:22.621Z,73.73
2023-03-22T10:24:55.806Z,71.24
2023-03-22T10:27:30.657Z,72.75
2023-03-22T10:30:05.111Z,73.04
2023-03-22T10:32:56.809Z,71.80
2023-03-22T10:35:31.158Z,72.06
2023-03-22T10:38:07.780Z,70.89
2023-03-22T10:40:41.539Z,70.57
2023-03-22T10:43:18.520Z,73.25
2023-03-22T10:45:52.346Z,72.88
2023-03-22T10:48:27.873Z,72.03
2023-03-22T10:51:01.201Z,73.77
2023-03-22T10:53:38.799Z,72.97
2023-03-22T10:56:13.823Z,73.71
2023-03-22T10:58:46.840Z,64.63
2023-03-22T11:01:27.341Z,70.91
2023-03-22T11:04:01.239Z,70.65
2023-03-22T11:06:35.338Z,69.70
2023-03-22T11:09:14.320Z,71.89
2023-03-22T11:11:49.494Z,71.89
2023-03-22T11:14:25.334Z,72.64
2023-03-22T11:16:59.556Z,71.95
2023-03-22T11:19:33.824Z,74.64
2023-03-22T11:22:08.313Z,74.28
2023-03-22T11:24:43.043Z,74.28
2023-03-22T11:27:20.392Z,74.80
2023-03-22T11:29:54.161Z,74.90
2023-03-22T11:32:28.897Z,73.77
2023-03-22T11:35:03.407Z,74.46
2023-03-22T11:37:41.767Z,72.86
2023-03-22T11:40:18.658Z,70.91
2023-03-22T11:42:54.155Z,70.32
2023-03-22T11:45:28.309Z,70.91
2023-03-22T11:48:03.248Z,67.12
2023-03-22T11:50:39.137Z,68.38
2023-03-22T11:53:13.471Z,70.46
2023-03-22T11:55:49.918Z,71.75
2023-03-22T11:58:28.157Z,71.67
2023-03-22T12:01:02.069Z,70.53
2023-03-22T12:03:39.308Z,73.74
2023-03-22T12:06:18.702Z,72.25
2023-03-22T12:08:54.066Z,72.52
2023-03-22T12:11:29.476Z,72.30
2023-03-22T12:14:04.142Z,71.78
2023-03-22T12:16:41.068Z,69.70
2023-03-22T12:19:18.224Z,71.98
2023-03-22T12:21:51.519Z,71.93
2023-03-22T12:24:27.069Z,73.47
2023-03-22T12:27:05.295Z,71.83
2023-03-22T12:29:39.712Z,69.48
2023-03-22T12:32:15.788Z,66.72
2023-03-22T12:34:51.092Z,72.37
2023-03-22T12:37:28.963Z,67.69
2023-03-22T12:40:06.140Z,71.52
2023-03-22T12:42:50.782Z,69.53
2023-03-22T12:45:27.368Z,71.80
2023-03-22T12:48:05.134Z,72.30
2023-03-22T12:50:40.548Z,73.00
2023-03-22T12:53:16.297Z,71.28
2023-03-22T12:55:49.632Z,70.91
2023-03-22T12:58:25.244Z,69.18
2023-03-22T13:01:00.146Z,68.45
2023-03-22T13:03:39.020Z,67.78
2023-03-22T13:06:27.319Z,72.41
2023-03-22T13:09:05.111Z,73.95
2023-03-22T13:11:37.842Z,71.54
2023-03-22T13:14:34.621Z,70.05
2023-03-22T13:17:09.027Z,72.94
2023-03-22T13:19:52.689Z,67.66
2023-03-22T13:22:28.334Z,66.93
2023-03-22T13:25:13.843Z,73.18
2023-03-22T13:27:52.571Z,71.98
2023-03-22T13:30:27.178Z,73.11
2023-03-22T13:33:04.412Z,69.27
2023-03-22T13:35:41.114Z,66.24
2023-03-22T13:38:21.056Z,68.41
2023-03-22T13:40:57.693Z,68.03
2023-03-22T13:43:32.384Z,68.04
2023-03-22T13:46:07.341Z,66.11
2023-03-22T13:48:52.426Z,59.96
2023-03-22T13:51:31.214Z,61.50
2023-03-22T13:54:05.852Z,63.22
2023-03-22T13:56:53.172Z,64.52
2023-03-22T13:59:31.037Z,61.38
2023-03-22T14:02:05.891Z,66.92
2023-03-22T14:04:42.677Z,66.37
2023-03-22T14:07:22.466Z,56.66
2023-03-22T14:09:57.072Z,65.88
2023-03-22T14:12:32.583Z,70.11
2023-03-22T14:15:07.999Z,70.54
2023-03-22T14:17:43.467Z,69.66
2023-03-22T14:20:19.529Z,63.90
